Time;durP1;ratioP1;P1;durP2;ratioP2;P2;SDS_P1;SDS_P2;PMS_P1;PMS_P2;Temp;Humidity;BMP_temperature;BMP_pressure;BME280_temperature;BME280_humidity;BME280_pressure;Samples;Min_cycle;Max_cycle;Signal;HPM_P1;HPM_P2
2022/11/07 00:07:08;;;;;;;1999.90;999.90;;;10.40;99.90;;;;;;6670844;89;20200;-79
2022/11/07 00:17:08;;;;;;;1999.90;999.90;;;10.30;99.90;;;;;;6656831;88;20196;-79
2022/11/07 00:27:09;;;;;;;1999.90;999.90;;;10.30;99.90;;;;;;6657694;89;20216;-79
2022/11/07 00:37:09;;;;;;;1999.90;999.90;;;10.20;99.90;;;;;;6657323;89;20191;-79
2022/11/07 00:47:10;;;;;;;1999.90;999.90;;;10.20;99.90;;;;;;6663113;89;20180;-79
2022/11/07 00:57:11;;;;;;;1999.90;999.90;;;10.20;99.90;;;;;;6674189;89;20285;-78
2022/11/07 01:07:11;;;;;;;1999.90;999.90;;;10.20;99.90;;;;;;6674191;89;20211;-79
2022/11/07 01:17:12;;;;;;;1999.90;999.90;;;10.30;99.90;;;;;;6672931;89;20559;-78
2022/11/07 01:27:12;;;;;;;1999.90;999.90;;;10.30;99.90;;;;;;6673057;89;20337;-78
2022/11/07 01:37:13;;;;;;;1999.90;999.90;;;10.30;99.90;;;;;;6672948;89;20353;-78
2022/11/07 01:47:13;;;;;;;1999.90;999.90;;;10.30;99.90;;;;;;6672103;89;20213;-78
2022/11/07 01:57:30;;;;;;;1999.90;999.90;;;10.10;99.90;;;;;;6673420;89;20647;-77
2022/11/07 02:07:32;;;;;;;1999.90;999.90;;;10.10;99.90;;;;;;6673339;89;20270;-80
2022/11/07 02:17:33;;;;;;;1999.90;999.90;;;10.10;99.90;;;;;;6674043;89;20240;-77
2022/11/07 02:27:36;;;;;;;1999.90;999.90;;;10.20;99.90;;;;;;6669643;88;20480;-79
2022/11/07 02:58:49;;;;;;;1999.90;999.90;;;10.40;99.90;;;;;;6676998;88;20216;-78
2022/11/07 03:08:49;;;;;;;1999.90;999.90;;;10.50;99.90;;;;;;6680800;88;20219;-79
2022/11/07 03:18:50;;;;;;;1999.90;999.90;;;10.60;99.90;;;;;;6669487;88;20218;-79
2022/11/07 03:28:51;;;;;;;1999.90;999.90;;;10.60;99.90;;;;;;6670861;88;20688;-79
2022/11/07 03:38:51;;;;;;;1999.90;999.90;;;10.70;99.90;;;;;;6683441;88;20173;-77
2022/11/07 03:49:04;;;;;;;;;;;;;;;;;;;;;
2022/11/07 03:59:05;;;;;;;1999.90;999.90;;;10.60;99.90;;;;;;6671053;88;20231;-80
2022/11/07 04:09:06;;;;;;;1999.90;999.90;;;10.50;99.90;;;;;;6676452;88;20211;-78
2022/11/07 04:19:06;;;;;;;1999.90;999.90;;;10.60;99.90;;;;;;6678439;88;20408;-78
2022/11/07 04:29:19;;;;;;;;;;;;;;;;;;;;;
2022/11/07 04:39:20;;;;;;;1999.90;999.90;;;10.50;99.90;;;;;;6685232;88;20250;-78
2022/11/07 04:49:20;;;;;;;1999.90;999.90;;;10.10;99.90;;;;;;6681900;88;20216;-78
2022/11/07 04:59:21;;;;;;;1999.90;999.90;;;10.10;99.90;;;;;;6673026;88;20190;-77
2022/11/07 05:09:21;;;;;;;1999.90;999.90;;;10.20;99.90;;;;;;6690806;88;20195;-79
2022/11/07 05:19:29;;;;;;;1999.90;999.90;;;10.50;99.90;;;;;;6739010;88;20301;-78
2022/11/07 05:29:30;;;;;;;1999.90;999.90;;;10.40;99.90;;;;;;6740567;88;20202;-77
2022/11/07 05:39:31;;;;;;;1999.90;999.90;;;10.20;99.90;;;;;;6696021;88;20201;-78
2022/11/07 05:49:34;;;;;;;1999.90;999.90;;;9.70;99.90;;;;;;6679492;88;20212;-78
2022/11/07 05:59:34;;;;;;;1999.90;999.90;;;10.10;99.90;;;;;;6676047;88;20234;-80
2022/11/07 06:09:35;;;;;;;1999.90;999.90;;;10.10;99.90;;;;;;6675063;88;20202;-78
2022/11/07 06:19:37;;;;;;;1999.90;999.90;;;10.50;99.90;;;;;;6672975;88;20176;-79
2022/11/07 06:29:43;;;;;;;1999.90;999.90;;;10.80;99.90;;;;;;6681643;88;20172;-78
2022/11/07 06:39:43;;;;;;;1999.90;999.90;;;11.20;99.90;;;;;;6692689;88;20172;-81
2022/11/07 06:49:44;;;;;;;1999.90;999.90;;;11.40;99.90;;;;;;6678323;88;20208;-82
2022/11/07 06:59:45;;;;;;;1999.90;999.90;;;11.60;99.90;;;;;;6682143;88;20280;-78
2022/11/07 07:09:45;;;;;;;1999.90;999.90;;;11.70;99.90;;;;;;6687301;88;20654;-81
2022/11/07 07:19:46;;;;;;;1999.90;999.90;;;11.80;99.90;;;;;;6678988;88;20192;-82
2022/11/07 07:29:46;;;;;;;1999.90;999.90;;;11.80;99.90;;;;;;6681194;88;20251;-80
2022/11/07 07:39:47;;;;;;;1999.90;999.90;;;12.00;99.90;;;;;;6687623;88;20160;-82
2022/11/07 07:49:47;;;;;;;1999.90;999.90;;;12.10;99.90;;;;;;6678195;88;20198;-81
2022/11/07 07:59:48;;;;;;;1999.90;999.90;;;12.30;99.90;;;;;;6699265;88;20903;-80
2022/11/07 08:09:49;;;;;;;1999.90;999.90;;;12.60;99.90;;;;;;6680905;89;20271;-78
2022/11/07 08:19:49;;;;;;;1999.90;999.90;;;12.80;99.90;;;;;;6686934;88;20214;-80
2022/11/07 08:29:50;;;;;;;1999.90;999.90;;;13.00;99.90;;;;;;6684066;88;20258;-81
2022/11/07 08:39:50;;;;;;;1999.90;999.90;;;13.10;99.90;;;;;;6683855;77;20213;-77
2022/11/07 08:49:51;;;;;;;1999.90;999.90;;;13.20;99.90;;;;;;6658828;88;20199;-78
2022/11/07 08:59:51;;;;;;;1999.90;999.90;;;13.60;99.90;;;;;;6655117;88;21014;-78
2022/11/07 09:09:52;;;;;;;1999.90;999.90;;;14.00;99.90;;;;;;6673032;88;20199;-77
2022/11/07 09:19:52;;;;;;;1999.90;999.90;;;14.10;99.90;;;;;;6658472;89;20210;-78
2022/11/07 09:29:53;;;;;;;1999.90;999.90;;;14.80;99.90;;;;;;6657627;88;20223;-75
2022/11/07 09:39:53;;;;;;;1999.90;999.90;;;15.00;99.90;;;;;;6661836;88;20212;-78
2022/11/07 09:50:00;;;;;;;1999.90;999.90;;;15.00;99.90;;;;;;6662016;88;20189;-76
2022/11/07 10:00:15;;;;;;;1999.90;999.90;;;15.10;99.90;;;;;;6648714;88;20244;-78
2022/11/07 10:10:38;;;;;;;1999.90;999.90;;;15.20;99.90;;;;;;6684133;88;20254;-78
2022/11/07 10:21:05;;;;;;;1999.90;999.90;;;15.70;99.90;;;;;;6662932;88;20608;-78
2022/11/07 10:31:09;;;;;;;1999.90;999.90;;;15.50;99.90;;;;;;6649890;88;20254;-78
2022/11/07 10:41:25;;;;;;;1999.90;999.90;;;15.60;99.90;;;;;;6655913;87;20185;-78
2022/11/07 10:51:35;;;;;;;;;;;16.40;99.90;;;;;;6660284;88;20313;-78
2022/11/07 11:01:36;;;;;;;1999.90;999.90;;;16.30;99.90;;;;;;6649808;88;20215;-78
2022/11/07 11:11:36;;;;;;;1999.90;999.90;;;16.20;99.90;;;;;;6665683;88;20210;-78
2022/11/07 11:21:43;;;;;;;1999.90;999.90;;;16.70;99.90;;;;;;6661827;88;20313;-78
2022/11/07 11:31:47;;;;;;;1999.90;999.90;;;16.80;99.90;;;;;;6653284;88;20332;-79
2022/11/07 11:41:56;;;;;;;1999.90;999.90;;;17.10;99.90;;;;;;6672346;88;20206;-77
2022/11/07 11:52:10;;;;;;;1999.90;999.90;;;17.70;99.90;;;;;;6674891;88;20198;-78
2022/11/07 12:02:49;;;;;;;1999.90;999.90;;;17.50;99.90;;;;;;6670652;88;20314;-78
2022/11/07 12:12:55;;;;;;;1999.90;999.90;;;17.60;99.90;;;;;;6662059;88;20194;-79
2022/11/07 12:23:34;;;;;;;1999.90;999.90;;;17.30;99.90;;;;;;6651887;88;20374;-78
2022/11/07 12:33:47;;;;;;;1999.90;999.90;;;17.10;99.90;;;;;;6665103;88;20212;-79
2022/11/07 12:44:00;;;;;;;1999.90;999.90;;;17.30;99.90;;;;;;6647090;88;20207;-78
2022/11/07 12:54:23;;;;;;;1999.90;999.90;;;18.00;99.90;;;;;;6648367;89;20226;-78
2022/11/07 13:04:37;;;;;;;1999.90;999.90;;;17.80;99.90;;;;;;6661137;88;20173;-79
2022/11/07 13:14:40;;;;;;;1999.90;999.90;;;17.90;99.90;;;;;;6653624;88;20189;-78
2022/11/07 13:24:52;;;;;;;1999.90;999.90;;;17.40;99.90;;;;;;6649709;89;20196;-77
2022/11/07 13:34:58;;;;;;;1999.90;999.90;;;17.00;99.90;;;;;;6657579;88;20177;-77
2022/11/07 13:45:17;;;;;;;1999.90;999.90;;;16.90;99.90;;;;;;6652341;88;20215;-78
2022/11/07 13:55:22;;;;;;;1999.90;999.90;;;17.10;99.90;;;;;;6646258;89;20214;-78
2022/11/07 14:05:35;;;;;;;1999.90;999.90;;;16.70;99.90;;;;;;6656833;89;20280;-78
2022/11/07 14:15:43;;;;;;;1999.90;999.90;;;16.80;99.90;;;;;;6661475;88;20201;-77
2022/11/07 14:25:54;;;;;;;1999.90;999.90;;;16.40;99.90;;;;;;6657871;88;20213;-77
2022/11/07 14:35:55;;;;;;;1999.90;999.90;;;16.30;99.90;;;;;;6658748;88;20192;-77
2022/11/07 14:46:20;;;;;;;1999.90;999.90;;;16.30;99.90;;;;;;6740671;78;20188;-78
2022/11/07 14:56:27;;;;;;;1999.90;999.90;;;16.30;99.90;;;;;;6693470;88;20188;-80
2022/11/07 15:06:34;;;;;;;1999.90;999.90;;;15.90;99.90;;;;;;6693304;89;20186;-80
2022/11/07 15:16:37;;;;;;;1999.90;999.90;;;15.60;99.90;;;;;;6690094;88;20205;-78
2022/11/07 15:26:38;;;;;;;1999.90;999.90;;;15.40;99.90;;;;;;6694352;88;20190;-79
2022/11/07 15:36:39;;;;;;;1999.90;999.90;;;15.30;99.90;;;;;;6691109;89;20634;-79
2022/11/07 15:46:40;;;;;;;1999.90;999.90;;;15.20;99.90;;;;;;6695077;88;20220;-78
2022/11/07 15:56:41;;;;;;;1999.90;999.90;;;15.00;99.90;;;;;;6699957;88;20205;-81
2022/11/07 16:06:42;;;;;;;1999.90;999.90;;;15.00;99.90;;;;;;6692882;89;20186;-79
2022/11/07 16:27:51;;;;;;;1999.90;999.90;;;14.60;99.90;;;;;;6744605;88;20193;-79
2022/11/07 16:37:52;;;;;;;1999.90;999.90;;;14.50;99.90;;;;;;6735879;88;20305;-79
2022/11/07 16:47:53;;;;;;;1999.90;999.90;;;14.40;99.90;;;;;;6734448;88;20215;-76
2022/11/07 16:57:53;;;;;;;1999.90;999.90;;;14.30;99.90;;;;;;6733891;88;20316;-77
2022/11/07 17:07:54;;;;;;;1999.90;999.90;;;14.20;99.90;;;;;;6736341;88;20651;-78
2022/11/07 17:17:55;;;;;;;1999.90;999.90;;;14.10;99.90;;;;;;6718991;88;21118;-77
2022/11/07 17:27:55;;;;;;;1999.90;999.90;;;14.00;99.90;;;;;;6717170;88;20193;-78
2022/11/07 17:37:56;;;;;;;1999.90;999.90;;;14.10;99.90;;;;;;6718262;88;20188;-78
2022/11/07 17:47:57;;;;;;;1999.90;999.90;;;14.00;99.90;;;;;;6717152;88;20201;-79
2022/11/07 17:57:57;;;;;;;1999.90;999.90;;;14.10;99.90;;;;;;6717687;88;20243;-79
2022/11/07 18:07:58;;;;;;;1999.90;999.90;;;14.30;99.90;;;;;;6720683;88;20192;-79
2022/11/07 18:29:03;;;;;;;1999.90;999.90;;;14.40;99.90;;;;;;6776637;87;20565;-78
2022/11/07 18:39:11;;;;;;;1999.90;999.90;;;14.30;99.90;;;;;;6772976;87;20223;-79
2022/11/07 18:49:13;;;;;;;1999.90;999.90;;;14.10;99.90;;;;;;6752176;88;20651;-77
2022/11/07 18:59:14;;;;;;;1999.90;999.90;;;14.00;99.90;;;;;;6757495;88;20217;-79
2022/11/07 19:09:14;;;;;;;1999.90;999.90;;;13.90;99.90;;;;;;6753780;88;20195;-78
2022/11/07 19:19:15;;;;;;;1999.90;999.90;;;13.70;99.90;;;;;;6754321;87;20208;-78
2022/11/07 19:29:16;;;;;;;1999.90;999.90;;;13.60;99.90;;;;;;6753562;88;20209;-79
2022/11/07 19:39:16;;;;;;;1999.90;999.90;;;13.40;99.90;;;;;;6752927;88;20220;-78
2022/11/07 19:49:17;;;;;;;1999.90;999.90;;;13.40;99.90;;;;;;6752929;88;21038;-79
2022/11/07 19:59:17;;;;;;;1999.90;999.90;;;13.30;99.90;;;;;;6752822;88;20772;-79
2022/11/07 20:09:18;;;;;;;1999.90;999.90;;;13.30;99.90;;;;;;6751904;88;20307;-78
2022/11/07 20:19:18;;;;;;;1999.90;999.90;;;13.30;99.90;;;;;;6752866;88;20203;-77
2022/11/07 20:29:21;;;;;;;1999.90;999.90;;;13.10;99.90;;;;;;6755288;88;20253;-78
2022/11/07 20:49:25;;;;;;;1999.90;999.90;;;12.90;99.90;;;;;;6746233;88;20221;-79
2022/11/07 20:59:30;;;;;;;1999.90;999.90;;;12.90;99.90;;;;;;6742832;88;20772;-78
2022/11/07 21:09:32;;;;;;;1999.90;999.90;;;12.80;99.90;;;;;;6736851;88;20203;-77
2022/11/07 21:19:33;;;;;;;1999.90;999.90;;;12.60;99.90;;;;;;6738818;88;20646;-77
2022/11/07 21:29:37;;;;;;;1999.90;999.90;;;12.50;99.90;;;;;;6734396;88;20239;-78
2022/11/07 21:39:38;;;;;;;1999.90;999.90;;;12.50;99.90;;;;;;6740650;88;20560;-77
2022/11/07 21:49:51;;;;;;;1999.90;999.90;;;12.80;99.90;;;;;;6740625;88;20208;-77
2022/11/07 22:00:24;;;;;;;1999.90;999.90;;;13.10;99.90;;;;;;6739839;88;20241;-77
2022/11/07 22:10:32;;;;;;;1999.90;999.90;;;13.10;99.90;;;;;;6723387;88;20196;-78
2022/11/07 22:20:47;;;;;;;1999.90;999.90;;;13.10;99.90;;;;;;6723893;88;20209;-78
2022/11/07 22:30:54;;;;;;;1999.90;999.90;;;13.20;99.90;;;;;;6737063;88;20225;-78
2022/11/07 22:40:55;;;;;;;1999.90;999.90;;;13.10;99.90;;;;;;6736532;88;20217;-77
2022/11/07 22:51:09;;;;;;;1999.90;999.90;;;12.90;99.90;;;;;;6722312;88;20186;-78
2022/11/07 23:01:39;;;;;;;1999.90;999.90;;;12.50;99.90;;;;;;6721701;88;20181;-77
2022/11/07 23:11:43;;;;;;;1999.90;999.90;;;12.30;99.90;;;;;;6720986;88;20182;-77
2022/11/07 23:21:45;;;;;;;1999.90;999.90;;;12.30;99.90;;;;;;6717606;88;20599;-78
2022/11/07 23:31:48;;;;;;;1999.90;999.90;;;12.20;99.90;;;;;;6721608;88;20372;-78
2022/11/07 23:41:49;;;;;;;1999.90;999.90;;;11.90;99.90;;;;;;6717941;88;20180;-77
2022/11/07 23:52:01;;;;;;;1999.90;999.90;;;11.80;99.90;;;;;;6721573;88;20181;-78
